Time;durP1;ratioP1;P1;durP2;ratioP2;P2;SDS_P1;SDS_P2;PMS_P1;PMS_P2;Temp;Humidity;BMP_temperature;BMP_pressure;BME280_temperature;BME280_humidity;BME280_pressure;Samples;Min_cycle;Max_cycle;Signal;HPM_P1;HPM_P2
2023/10/16 00:02:22;;;;;;;6.57;1.10;;;;;;;6.18;57.15;100008.63;5128066;28;20019;-65
2023/10/16 00:04:48;;;;;;;0.60;0.60;;;;;;;6.22;57.15;100021.53;5127983;28;20027;-65
2023/10/16 00:07:15;;;;;;;0.40;0.40;;;;;;;6.20;57.01;100024.09;5127909;28;20097;-65
2023/10/16 00:09:41;;;;;;;0.50;0.50;;;;;;;6.13;56.94;100017.22;5127898;28;20102;-65
2023/10/16 00:12:07;;;;;;;1.38;0.80;;;;;;;6.13;56.97;100023.25;5126549;28;20065;-66
2023/10/16 00:14:35;;;;;;;0.70;0.70;;;;;;;6.07;57.13;100018.06;5127697;28;20092;-66
2023/10/16 00:17:03;;;;;;;0.60;0.60;;;;;;;6.09;57.12;100026.66;5127870;28;20047;-66
2023/10/16 00:19:33;;;;;;;0.50;0.50;;;;;;;6.05;57.13;100019.78;5127845;28;20031;-65
2023/10/16 00:21:59;;;;;;;0.75;0.68;;;;;;;6.00;57.13;100024.00;5127721;28;20044;-65
2023/10/16 00:24:24;;;;;;;0.75;0.73;;;;;;;6.00;57.20;100031.72;5127732;28;20525;-64
2023/10/16 00:26:49;;;;;;;0.50;0.50;;;;;;;5.95;57.18;100036.88;5127681;27;20028;-65
2023/10/16 00:32:00;;;;;;;1.02;0.57;;;;;;;5.90;57.37;100042.00;5127660;28;20024;-65
2023/10/16 00:34:25;;;;;;;5.10;0.57;;;;;;;5.89;57.38;100050.59;5126001;28;20027;-65
2023/10/16 00:36:54;;;;;;;0.63;0.63;;;;;;;5.86;57.27;100050.59;5127761;28;20027;-65
2023/10/16 00:39:20;;;;;;;0.70;0.52;;;;;;;5.86;57.36;100050.59;5127389;28;20024;-66
2023/10/16 00:41:49;;;;;;;0.40;0.40;;;;;;;5.85;57.70;100054.00;5127367;28;20020;-65
2023/10/16 00:44:16;;;;;;;0.73;0.70;;;;;;;5.88;58.00;100058.31;5125848;28;20027;-65
2023/10/16 00:46:48;;;;;;;4.68;1.05;;;;;;;5.91;57.87;100053.19;5127293;28;20024;-65
2023/10/16 00:49:14;;;;;;;0.45;0.45;;;;;;;5.90;57.79;100047.16;5127348;28;20027;-65
2023/10/16 00:51:41;;;;;;;1.40;0.80;;;;;;;5.92;57.78;100053.19;5127170;28;20045;-65
2023/10/16 00:54:27;;;;;;;0.60;0.60;;;;;;;5.91;57.81;100064.31;5126995;27;20050;-64
2023/10/16 00:56:53;;;;;;;0.40;0.40;;;;;;;5.92;57.73;100060.91;5127025;28;20020;-64
2023/10/16 00:59:23;;;;;;;6.07;0.75;;;;;;;5.84;57.82;100057.44;5126827;28;20028;-65
2023/10/16 01:01:51;;;;;;;0.95;0.70;;;;;;;5.85;58.10;100072.03;5126945;28;20041;-66
2023/10/16 01:04:19;;;;;;;2.47;0.80;;;;;;;5.83;58.18;100074.59;5126724;28;20054;-66
2023/10/16 01:06:45;;;;;;;0.80;0.68;;;;;;;5.83;57.99;100078.91;5126991;28;20047;-66
2023/10/16 01:09:22;;;;;;;0.40;0.40;;;;;;;5.80;58.19;100077.16;5126707;28;20020;-65
2023/10/16 01:11:48;;;;;;;0.55;0.55;;;;;;;5.77;58.44;100078.84;5125377;28;20045;-65
2023/10/16 01:14:14;;;;;;;0.50;0.50;;;;;;;5.75;58.46;100083.16;5126392;28;20514;-65
2023/10/16 01:16:39;;;;;;;0.50;0.50;;;;;;;5.74;58.47;100081.41;5126818;28;20036;-67
2023/10/16 01:19:08;;;;;;;0.50;0.50;;;;;;;5.78;58.42;100080.59;5126683;28;20024;-65
2023/10/16 01:21:34;;;;;;;4.47;0.85;;;;;;;5.80;58.50;100081.44;5126365;28;20108;-65
2023/10/16 01:24:14;;;;;;;0.45;0.45;;;;;;;5.78;58.62;100083.16;5126392;27;20019;-66
2023/10/16 01:26:40;;;;;;;0.43;0.43;;;;;;;5.78;58.82;100085.75;5126613;28;20031;-66
2023/10/16 01:29:09;;;;;;;0.80;0.80;;;;;;;5.75;58.76;100085.72;5124629;28;20019;-66
2023/10/16 01:31:36;;;;;;;0.60;0.50;;;;;;;5.66;58.82;100071.06;5125157;28;20053;-65
2023/10/16 01:34:03;;;;;;;1.67;0.82;;;;;;;5.74;59.08;100097.72;5126222;28;20031;-65
2023/10/16 01:36:30;;;;;;;0.70;0.70;;;;;;;5.70;58.98;100091.69;5125031;28;20038;-66
2023/10/16 01:38:59;;;;;;;0.40;0.40;;;;;;;5.74;59.12;100100.31;5126306;28;20024;-65
2023/10/16 01:41:24;;;;;;;0.90;0.80;;;;;;;5.74;59.22;100102.88;5126066;28;20023;-65
2023/10/16 01:43:52;;;;;;;1.02;0.93;;;;;;;5.73;59.09;100095.16;5125804;28;20028;-66
2023/10/16 01:46:18;;;;;;;0.73;0.73;;;;;;;5.76;59.03;100100.31;5126236;28;20528;-64
2023/10/16 01:48:46;;;;;;;0.63;0.63;;;;;;;5.78;58.96;100106.34;5126002;28;20028;-66
2023/10/16 01:51:18;;;;;;;2.35;0.73;;;;;;;5.72;58.99;100104.56;5125901;28;20031;-65
2023/10/16 01:53:43;;;;;;;0.57;0.57;;;;;;;5.71;58.85;100100.28;5124790;28;20513;-65
2023/10/16 01:56:15;;;;;;;0.80;0.80;;;;;;;5.65;58.79;100092.53;5126098;28;20027;-65
2023/10/16 01:58:42;;;;;;;0.40;0.40;;;;;;;5.52;59.29;100084.72;5125895;28;20081;-65
2023/10/16 02:01:11;;;;;;;0.82;0.77;;;;;;;5.56;58.98;100090.72;5125846;28;20027;-66
2023/10/16 02:03:38;;;;;;;0.60;0.60;;;;;;;5.55;59.00;100089.88;5125949;28;20064;-66
2023/10/16 02:06:04;;;;;;;0.60;0.60;;;;;;;5.52;58.96;100095.00;5125812;28;20035;-65
2023/10/16 02:08:29;;;;;;;0.47;0.47;;;;;;;5.53;59.05;100103.56;5125586;28;20027;-65
2023/10/16 02:10:55;;;;;;;0.93;0.70;;;;;;;5.48;59.06;100105.28;5125850;27;20383;-65
2023/10/16 02:13:20;;;;;;;0.98;0.70;;;;;;;5.49;59.12;100112.16;5125878;28;20019;-65
2023/10/16 02:15:47;;;;;;;0.60;0.60;;;;;;;5.43;59.10;100113.81;5124464;28;20119;-66
2023/10/16 02:18:20;;;;;;;0.40;0.40;;;;;;;5.32;59.25;100105.13;5124368;28;20140;-66
2023/10/16 02:20:45;;;;;;;0.40;0.40;;;;;;;5.46;59.46;100126.72;5125417;28;20107;-66
2023/10/16 02:23:11;;;;;;;0.68;0.68;;;;;;;5.48;59.51;100128.44;5125840;28;20088;-66
2023/10/16 02:25:37;;;;;;;0.40;0.40;;;;;;;5.51;59.24;100133.63;5125698;28;20043;-66
2023/10/16 02:28:07;;;;;;;0.50;0.50;;;;;;;5.53;59.25;100134.47;5125813;28;20027;-65
2023/10/16 02:30:35;;;;;;;0.68;0.55;;;;;;;5.50;59.23;100127.59;5125557;28;20024;-65
2023/10/16 02:33:26;;;;;;;1.73;0.85;;;;;;;5.55;59.28;100132.78;5107388;28;20023;-65
2023/10/16 02:35:53;;;;;;;0.50;0.50;;;;;;;5.56;59.45;100143.09;5125567;28;20024;-65
2023/10/16 02:38:28;;;;;;;1.20;1.10;;;;;;;5.55;59.38;100149.13;5125353;28;20401;-67
2023/10/16 02:41:00;;;;;;;0.52;0.52;;;;;;;5.54;59.45;100151.69;5125401;28;20083;-65
2023/10/16 02:43:29;;;;;;;0.60;0.60;;;;;;;5.55;59.31;100145.66;5125585;28;20139;-65
2023/10/16 02:45:56;;;;;;;0.50;0.50;;;;;;;5.57;59.32;100146.56;5125378;28;20556;-65
2023/10/16 02:48:23;;;;;;;0.40;0.40;;;;;;;5.54;59.32;100146.53;5125313;28;20055;-65
2023/10/16 02:50:50;;;;;;;0.40;0.40;;;;;;;5.51;59.34;100152.50;5125572;28;20090;-66
2023/10/16 02:53:21;;;;;;;0.40;0.40;;;;;;;5.47;59.21;100145.59;5125357;28;20031;-66
2023/10/16 02:55:49;;;;;;;1.13;0.73;;;;;;;5.41;59.16;100142.97;5125644;28;20020;-66
2023/10/16 02:58:15;;;;;;;0.40;0.40;;;;;;;5.39;59.13;100157.53;5125198;28;20030;-65
2023/10/16 03:00:49;;;;;;;0.60;0.60;;;;;;;5.35;59.22;100161.81;5125061;28;20395;-65
2023/10/16 03:03:15;;;;;;;0.40;0.40;;;;;;;5.28;59.21;100157.44;5126432;28;20586;-65
2023/10/16 03:05:41;;;;;;;0.68;0.68;;;;;;;5.26;59.26;100170.31;5129234;28;20113;-65
2023/10/16 03:08:08;;;;;;;0.43;0.43;;;;;;;5.22;59.40;100171.13;5129325;28;20472;-66
2023/10/16 03:10:36;;;;;;;0.40;0.40;;;;;;;5.17;59.32;100178.81;5129269;28;20024;-66
2023/10/16 03:13:05;;;;;;;0.70;0.70;;;;;;;5.13;59.32;100182.19;5129176;28;20051;-66
2023/10/16 03:15:38;;;;;;;0.50;0.50;;;;;;;5.12;59.34;100180.47;5128862;28;20055;-65
2023/10/16 03:18:04;;;;;;;0.50;0.50;;;;;;;5.09;59.21;100188.16;5129183;28;20027;-65
2023/10/16 03:20:35;;;;;;;0.40;0.40;;;;;;;5.06;59.27;100188.13;5128751;28;20071;-66
2023/10/16 03:23:06;;;;;;;0.45;0.45;;;;;;;5.07;59.39;100198.44;5129010;28;20032;-65
2023/10/16 03:28:08;;;;;;;0.40;0.40;;;;;;;5.01;59.61;100198.38;5128909;28;20047;-65
2023/10/16 03:30:34;;;;;;;0.73;0.45;;;;;;;5.03;59.69;100200.97;5128613;28;20030;-65
2023/10/16 03:33:03;;;;;;;0.40;0.40;;;;;;;5.04;59.81;100212.97;5128875;28;20024;-66
2023/10/16 03:35:31;;;;;;;0.40;0.40;;;;;;;5.03;59.93;100206.94;5128679;28;20020;-65
2023/10/16 03:37:58;;;;;;;0.40;0.40;;;;;;;5.02;59.71;100205.22;5128631;28;20019;-65
2023/10/16 03:40:27;;;;;;;0.50;0.50;;;;;;;5.07;59.75;100207.84;5128410;28;20111;-65
2023/10/16 03:42:53;;;;;;;0.40;0.40;;;;;;;5.06;59.81;100219.84;5128561;28;20464;-65
2023/10/16 03:45:21;;;;;;;0.40;0.40;;;;;;;5.04;59.62;100212.97;5128252;28;20027;-65
2023/10/16 03:48:00;;;;;;;0.55;0.55;;;;;;;5.03;59.86;100224.13;5128456;28;20484;-65
2023/10/16 03:50:38;;;;;;;0.50;0.50;;;;;;;4.96;59.62;100218.03;5128559;28;20031;-65
2023/10/16 03:53:07;;;;;;;0.60;0.60;;;;;;;4.96;59.84;100229.19;5128211;28;20015;-65
2023/10/16 03:55:46;;;;;;;0.40;0.40;;;;;;;4.92;59.88;100231.72;5128597;28;20024;-66
2023/10/16 03:58:12;;;;;;;0.55;0.55;;;;;;;4.90;59.85;100225.69;5128314;28;20093;-64
2023/10/16 04:00:52;;;;;;;0.50;0.50;;;;;;;4.89;59.74;100234.25;5127973;28;20044;-65
2023/10/16 04:03:21;;;;;;;0.70;0.70;;;;;;;4.77;60.05;100230.69;5127125;28;20053;-65
2023/10/16 04:05:48;;;;;;;0.40;0.40;;;;;;;4.72;60.19;100229.75;5126905;28;20079;-64
2023/10/16 04:08:14;;;;;;;0.55;0.55;;;;;;;4.73;60.04;100234.03;5127954;28;20034;-65
2023/10/16 04:10:46;;;;;;;1.05;0.65;;;;;;;4.71;60.08;100246.88;5126752;28;20020;-65
2023/10/16 04:13:12;;;;;;;0.60;0.60;;;;;;;4.63;59.84;100242.50;5128347;28;20044;-67
2023/10/16 04:15:59;;;;;;;1.13;0.75;;;;;;;4.45;59.68;100225.97;5127471;28;20076;-66
2023/10/16 04:21:37;;;;;;;0.95;0.60;;;;;;;4.55;59.57;100250.09;5128074;28;20044;-66
2023/10/16 04:31:44;;;;;;;0.60;0.60;;;;;;;4.34;59.93;100257.50;5127743;28;20020;-65
2023/10/16 04:50:37;;;;;;;0.75;0.70;;;;;;;4.46;60.30;100261.97;5127793;28;20024;-65
2023/10/16 05:03:25;;;;;;;0.50;0.50;;;;;;;4.45;60.36;100274.81;5127229;28;20103;-65
2023/10/16 05:06:04;;;;;;;0.40;0.40;;;;;;;4.44;60.57;100283.38;5126796;28;20106;-66
2023/10/16 05:08:48;;;;;;;0.43;0.43;;;;;;;4.39;60.42;100274.72;5125679;28;20033;-65
2023/10/16 05:11:27;;;;;;;0.50;0.50;;;;;;;4.36;60.47;100278.09;5127007;28;20064;-66
2023/10/16 05:13:55;;;;;;;3.97;0.70;;;;;;;4.39;60.83;100278.16;5126962;28;20015;-65
2023/10/16 05:19:14;;;;;;;0.43;0.43;;;;;;;4.36;60.30;100283.22;5126981;28;20020;-65
2023/10/16 06:16:20;;;;;;;1.35;0.75;;;;;;;4.24;60.76;100357.56;5125755;28;20061;-65
2023/10/16 06:18:47;;;;;;;0.68;0.60;;;;;;;4.31;60.81;100369.69;5125886;28;20027;-64
2023/10/16 06:21:15;;;;;;;0.65;0.65;;;;;;;4.32;60.92;100369.72;5125625;28;20066;-64
2023/10/16 06:23:48;;;;;;;0.60;0.60;;;;;;;4.38;61.00;100370.69;5124440;28;20088;-64
2023/10/16 06:26:14;;;;;;;0.65;0.65;;;;;;;4.43;60.88;100369.03;5125398;28;20023;-65
2023/10/16 06:28:47;;;;;;;1.20;0.75;;;;;;;4.51;61.10;100366.56;5125451;28;20054;-65
2023/10/16 06:31:22;;;;;;;0.73;0.65;;;;;;;4.58;60.94;100376.13;5125714;28;20019;-64
2023/10/16 06:33:57;;;;;;;0.40;0.40;;;;;;;4.73;61.08;100366.94;5125893;28;20126;-65
2023/10/16 06:36:28;;;;;;;0.50;0.50;;;;;;;5.15;61.11;100376.09;5124653;28;20031;-64
2023/10/16 06:38:54;;;;;;;0.47;0.47;;;;;;;5.77;61.34;100370.81;5129710;28;20027;-64
2023/10/16 06:41:20;;;;;;;0.68;0.50;;;;;;;6.61;61.21;100387.94;5130039;28;20094;-66
2023/10/16 06:43:47;;;;;;;0.45;0.45;;;;;;;7.39;61.02;100391.84;5130043;28;20094;-65
2023/10/16 06:46:21;;;;;;;0.40;0.40;;;;;;;8.03;60.92;100386.00;5129840;28;20020;-65
2023/10/16 06:48:48;;;;;;;0.50;0.50;;;;;;;8.86;60.25;100389.50;5130016;28;20030;-65
2023/10/16 06:51:15;;;;;;;0.65;0.65;;;;;;;9.66;60.12;100394.44;5130158;28;20079;-65
2023/10/16 06:53:40;;;;;;;0.50;0.50;;;;;;;10.21;59.57;100392.38;5129774;28;20023;-65
2023/10/16 06:56:06;;;;;;;0.50;0.50;;;;;;;10.61;57.20;100395.53;5129969;28;20028;-66
2023/10/16 06:58:34;;;;;;;0.50;0.50;;;;;;;11.07;58.13;100391.63;5129825;28;20025;-65
2023/10/16 07:01:01;;;;;;;0.40;0.40;;;;;;;11.33;57.77;100387.91;5129900;28;20024;-65
2023/10/16 07:03:28;;;;;;;0.47;0.47;;;;;;;11.56;57.23;100397.16;5129702;28;20019;-66
2023/10/16 07:05:53;;;;;;;3.55;0.98;;;;;;;11.67;55.59;100419.56;5129679;28;20476;-66
2023/10/16 07:08:20;;;;;;;1.48;0.73;;;;;;;11.95;57.44;100404.44;5128369;28;20041;-66
2023/10/16 07:10:51;;;;;;;10.68;1.50;;;;;;;12.16;55.73;100412.84;5129419;28;20026;-66
2023/10/16 07:13:26;;;;;;;3.00;1.73;;;;;;;12.49;56.92;100417.56;5129745;28;20024;-66
2023/10/16 07:15:59;;;;;;;1.38;1.00;;;;;;;12.74;55.70;100420.63;5129135;28;20023;-66
2023/10/16 07:18:25;;;;;;;0.70;0.63;;;;;;;12.82;54.86;100427.44;5129424;27;20027;-66
2023/10/16 07:23:24;;;;;;;0.75;0.70;;;;;;;12.54;52.15;100431.34;5129433;27;20023;-65
2023/10/16 07:25:54;;;;;;;1.55;1.10;;;;;;;12.23;51.33;100429.22;5129103;28;20034;-66
2023/10/16 07:28:21;;;;;;;0.60;0.50;;;;;;;12.29;52.86;100433.47;5129245;28;20536;-66
2023/10/16 07:30:46;;;;;;;0.63;0.60;;;;;;;12.41;53.39;100435.03;5128688;28;20027;-65
2023/10/16 07:33:15;;;;;;;2.08;0.60;;;;;;;12.38;52.91;100438.56;5129085;28;20032;-66
2023/10/16 07:35:45;;;;;;;0.57;0.40;;;;;;;12.22;51.36;100432.72;5127674;28;20356;-66
2023/10/16 07:38:19;;;;;;;1.05;0.60;;;;;;;12.07;50.55;100436.38;5129009;28;20051;-65
2023/10/16 07:40:45;;;;;;;0.73;0.57;;;;;;;11.95;50.25;100434.81;5128951;28;20023;-65
2023/10/16 07:43:10;;;;;;;0.57;0.57;;;;;;;11.79;49.92;100432.41;5128813;28;20020;-66
2023/10/16 07:45:37;;;;;;;0.75;0.52;;;;;;;11.83;48.33;100451.44;5128610;28;20040;-65
2023/10/16 07:48:17;;;;;;;0.57;0.52;;;;;;;11.92;48.69;100451.31;5128812;28;20094;-65
2023/10/16 07:50:43;;;;;;;7.88;1.25;;;;;;;12.31;48.24;100457.75;5128250;28;20032;-65
2023/10/16 07:53:08;;;;;;;0.77;0.68;;;;;;;12.59;46.78;100455.56;5128620;28;20023;-65
2023/10/16 07:55:40;;;;;;;0.60;0.55;;;;;;;12.91;46.84;100461.13;5128552;28;20080;-65
2023/10/16 07:58:15;;;;;;;1.58;0.65;;;;;;;13.43;46.50;100460.22;5128442;28;20023;-66
2023/10/16 08:01:17;;;;;;;0.50;0.50;;;;;;;14.13;45.67;100462.28;5128312;28;20034;-66
2023/10/16 08:03:36;;;;;;;0.60;0.60;;;;;;;14.59;45.21;100446.41;5128239;27;20024;-66
2023/10/16 08:06:04;;;;;;;0.80;0.40;;;;;;;14.96;44.35;100462.06;5128391;28;20023;-66
2023/10/16 08:08:36;;;;;;;0.50;0.50;;;;;;;15.04;43.85;100464.50;5128536;28;20045;-66
2023/10/16 08:11:12;;;;;;;0.60;0.60;;;;;;;15.08;43.85;100461.75;5128428;28;20016;-63
2023/10/16 08:13:46;;;;;;;0.52;0.52;;;;;;;15.36;44.04;100460.16;5128323;28;20088;-65
2023/10/16 08:16:18;;;;;;;0.43;0.43;;;;;;;15.60;42.72;100466.47;5110335;28;20518;-64
2023/10/16 08:18:51;;;;;;;0.70;0.60;;;;;;;15.53;40.21;100475.38;5128273;28;20024;-65
2023/10/16 08:21:26;;;;;;;1.70;0.75;;;;;;;15.46;41.64;100473.84;5127967;28;20091;-64
2023/10/16 08:23:56;;;;;;;0.40;0.40;;;;;;;15.66;41.21;100472.41;5128061;27;20027;-65
2023/10/16 08:26:29;;;;;;;0.40;0.40;;;;;;;15.65;41.53;100470.69;5128039;28;20031;-64
2023/10/16 08:28:56;;;;;;;0.40;0.40;;;;;;;15.71;39.52;100471.38;5127867;28;20024;-65
2023/10/16 08:31:24;;;;;;;0.40;0.40;;;;;;;15.59;40.34;100477.81;5126562;28;20016;-65
2023/10/16 08:33:59;;;;;;;0.40;0.40;;;;;;;15.71;40.64;100476.63;5128009;28;20028;-65
2023/10/16 08:36:26;;;;;;;0.40;0.40;;;;;;;15.78;40.43;100482.53;5126585;28;20044;-65
2023/10/16 08:38:53;;;;;;;0.55;0.50;;;;;;;15.94;40.86;100480.31;5126332;28;20054;-64
2023/10/16 08:41:42;;;;;;;1.42;0.70;;;;;;;15.87;38.76;100476.16;5127639;28;20085;-64
2023/10/16 08:44:15;;;;;;;0.70;0.50;;;;;;;15.69;40.21;100477.56;5127700;28;20031;-64
2023/10/16 08:47:11;;;;;;;2.00;0.80;;;;;;;16.03;41.00;100473.13;5127316;28;20049;-64
2023/10/16 08:49:38;;;;;;;0.40;0.40;;;;;;;16.66;37.65;100472.06;5127684;28;20019;-64
2023/10/16 08:52:10;;;;;;;1.50;0.70;;;;;;;16.78;40.23;100476.00;5127414;27;20019;-63
2023/10/16 08:57:19;;;;;;;2.70;0.90;;;;;;;17.44;40.18;100480.75;5127662;28;20379;-64
2023/10/16 08:59:47;;;;;;;0.80;0.50;;;;;;;17.60;39.89;100480.22;5126908;28;20537;-64
2023/10/16 09:02:17;;;;;;;1.10;0.60;;;;;;;17.93;40.34;100468.50;5126238;28;20019;-64
2023/10/16 09:04:43;;;;;;;0.80;0.68;;;;;;;18.27;40.46;100476.88;5127298;28;20027;-63
2023/10/16 09:07:11;;;;;;;3.80;0.57;;;;;;;18.50;38.02;100483.00;5127299;28;20019;-64
2023/10/16 09:09:41;;;;;;;0.63;0.50;;;;;;;18.58;38.45;100478.25;5125766;28;20023;-64
2023/10/16 09:12:10;;;;;;;0.32;0.32;;;;;;;18.55;38.05;100481.88;5127232;28;20015;-64
2023/10/16 09:14:38;;;;;;;0.80;0.60;;;;;;;18.11;37.65;100481.84;5126847;28;20077;-64
2023/10/16 09:17:06;;;;;;;0.30;0.30;;;;;;;17.90;38.35;100490.50;5126022;28;20034;-63
2023/10/16 09:19:34;;;;;;;0.50;0.50;;;;;;;17.99;38.24;100484.00;5126892;28;20047;-63
2023/10/16 09:22:04;;;;;;;0.40;0.35;;;;;;;18.14;37.93;100492.25;5126897;28;20050;-63
2023/10/16 09:24:31;;;;;;;0.63;0.55;;;;;;;18.21;37.92;100493.75;5126939;27;20129;-64
2023/10/16 09:26:57;;;;;;;0.60;0.50;;;;;;;18.29;37.46;100506.56;5126848;28;20023;-64
2023/10/16 09:29:24;;;;;;;1.48;0.63;;;;;;;18.59;35.94;100506.28;5126798;27;20045;-64
2023/10/16 09:31:50;;;;;;;5.57;1.42;;;;;;;19.17;35.05;100510.03;5125302;28;20023;-65
2023/10/16 09:34:20;;;;;;;1.90;1.40;;;;;;;19.16;33.13;100508.31;5126690;28;20044;-63
2023/10/16 09:37:13;;;;;;;5.05;2.78;;;;;;;19.43;34.95;100508.03;5126744;28;20034;-64
2023/10/16 09:39:34;;;;;;;10.65;3.42;;;;;;;20.22;34.61;100521.22;5126194;28;20042;-63
2023/10/16 09:42:05;;;;;;;59.42;27.10;;;;;;;20.17;31.44;100523.22;5126738;28;20027;-64
2023/10/16 09:44:37;;;;;;;47.42;23.83;;;;;;;20.23;32.91;100519.44;5126146;28;20032;-64
2023/10/16 09:47:25;;;;;;;5.63;4.47;;;;;;;20.50;32.19;100534.84;5126341;28;20049;-64
2023/10/16 09:49:49;;;;;;;59.58;17.65;;;;;;;21.56;33.00;100537.53;5126121;28;20110;-63
2023/10/16 09:52:20;;;;;;;27.88;10.27;;;;;;;22.76;31.71;100536.31;5126449;28;20019;-64
2023/10/16 09:54:49;;;;;;;5.60;2.42;;;;;;;24.07;32.34;100538.28;5126276;28;20034;-64
2023/10/16 09:57:29;;;;;;;1.77;1.35;;;;;;;24.80;29.43;100540.72;5126259;28;20039;-64
2023/10/16 09:59:54;;;;;;;0.80;0.70;;;;;;;25.38;29.48;100543.03;5126111;28;20031;-64
2023/10/16 10:02:25;;;;;;;0.30;0.30;;;;;;;26.24;29.87;100547.72;5126211;28;20023;-64
2023/10/16 10:05:03;;;;;;;0.43;0.40;;;;;;;26.69;25.68;100540.94;5126311;28;20043;-64
2023/10/16 10:07:34;;;;;;;0.20;0.20;;;;;;;27.36;28.63;100553.72;5126131;28;20024;-64
2023/10/16 10:10:39;;;;;;;0.20;0.20;;;;;;;27.53;27.47;100543.53;5125971;28;20092;-63
2023/10/16 10:12:51;;;;;;;0.22;0.20;;;;;;;27.17;27.82;100551.63;5125808;28;20038;-64
2023/10/16 10:15:22;;;;;;;20.05;1.40;;;;;;;26.67;28.45;100553.50;5125770;28;20049;-65
2023/10/16 10:17:54;;;;;;;0.20;0.20;;;;;;;25.76;26.71;100560.91;5126341;28;20031;-64
2023/10/16 10:20:24;;;;;;;0.20;0.20;;;;;;;24.92;28.74;100562.13;5125808;28;20043;-64
2023/10/16 10:22:58;;;;;;;0.10;0.10;;;;;;;24.44;27.96;100564.25;5126241;28;20047;-64
2023/10/16 10:25:36;;;;;;;3.10;0.40;;;;;;;24.46;27.77;100553.53;5125832;28;20034;-64
2023/10/16 10:28:09;;;;;;;0.35;0.30;;;;;;;23.38;26.12;100566.31;5126071;28;20024;-64
2023/10/16 10:30:43;;;;;;;0.63;0.38;;;;;;;22.28;26.76;100558.38;5125671;28;20020;-64
2023/10/16 10:33:10;;;;;;;0.22;0.22;;;;;;;22.04;28.91;100561.44;5126059;28;20023;-65
2023/10/16 10:35:39;;;;;;;0.30;0.20;;;;;;;22.12;28.63;100555.75;5125928;28;20027;-64
2023/10/16 10:38:17;;;;;;;0.30;0.30;;;;;;;22.77;28.98;100564.50;5125874;28;20020;-63
2023/10/16 10:41:05;;;;;;;0.20;0.20;;;;;;;23.08;27.44;100558.38;5125866;28;20024;-64
2023/10/16 10:43:46;;;;;;;0.20;0.20;;;;;;;23.28;26.34;100552.75;5125673;28;20209;-65
2023/10/16 10:46:23;;;;;;;0.20;0.20;;;;;;;22.74;27.46;100555.91;5125623;28;20054;-65
2023/10/16 10:48:48;;;;;;;0.30;0.30;;;;;;;22.04;26.74;100542.91;5124574;28;20482;-63
2023/10/16 10:51:16;;;;;;;1.02;0.43;;;;;;;20.84;26.14;100551.69;5125700;28;20016;-64
2023/10/16 10:53:55;;;;;;;0.20;0.20;;;;;;;20.31;27.44;100549.78;5124294;28;20015;-65
2023/10/16 10:56:21;;;;;;;0.20;0.20;;;;;;;20.11;27.33;100545.44;5125880;28;20020;-65
2023/10/16 10:58:48;;;;;;;0.32;0.30;;;;;;;20.27;28.43;100556.13;5125779;28;20134;-64
2023/10/16 11:01:16;;;;;;;7.75;0.93;;;;;;;21.05;26.99;100559.50;5125406;28;20024;-63
2023/10/16 11:03:46;;;;;;;0.55;0.40;;;;;;;21.42;25.92;100559.41;5125664;28;20030;-65
2023/10/16 11:06:31;;;;;;;0.38;0.28;;;;;;;20.87;26.90;100566.50;5125557;28;20032;-63
2023/10/16 11:09:11;;;;;;;0.45;0.45;;;;;;;21.13;27.59;100561.75;5125641;28;20023;-64
2023/10/16 11:11:39;;;;;;;0.40;0.40;;;;;;;22.01;28.08;100555.47;5125652;28;20012;-64
2023/10/16 11:14:07;;;;;;;0.35;0.32;;;;;;;21.29;24.70;100562.66;5125389;28;20048;-64
2023/10/16 11:16:32;;;;;;;3.10;1.67;;;;;;;18.91;26.51;100569.81;5125301;28;20031;-63
2023/10/16 11:19:08;;;;;;;1.75;0.90;;;;;;;16.63;28.37;100559.47;5125637;28;20027;-64
2023/10/16 11:21:36;;;;;;;5.15;1.25;;;;;;;15.17;30.66;100567.00;5125201;28;20051;-65
2023/10/16 11:24:05;;;;;;;0.50;0.50;;;;;;;14.22;32.29;100560.41;5125965;28;20488;-64
2023/10/16 11:26:32;;;;;;;0.85;0.60;;;;;;;13.69;32.96;100539.75;5129499;28;20047;-65
2023/10/16 11:29:00;;;;;;;0.45;0.40;;;;;;;13.43;33.56;100575.81;5129185;28;20106;-65
2023/10/16 11:31:26;;;;;;;1.13;0.45;;;;;;;13.10;34.12;100581.56;5128958;28;20049;-64
2023/10/16 11:34:01;;;;;;;0.30;0.30;;;;;;;12.79;34.43;100584.66;5129216;28;20015;-64
2023/10/16 11:36:31;;;;;;;0.30;0.30;;;;;;;12.55;34.82;100589.34;5129078;28;20117;-63
2023/10/16 11:39:02;;;;;;;0.90;0.70;;;;;;;12.12;35.47;100580.34;5129309;27;20028;-63
2023/10/16 11:41:30;;;;;;;0.40;0.40;;;;;;;11.83;36.18;100578.88;5127450;28;20020;-63
2023/10/16 11:43:55;;;;;;;1.10;0.65;;;;;;;11.60;36.21;100580.84;5128806;28;20106;-63
2023/10/16 11:46:44;;;;;;;0.55;0.52;;;;;;;11.47;36.95;100589.66;5128708;28;20023;-64
2023/10/16 11:51:48;;;;;;;;;;;;;;;11.17;37.48;100589.06;5129367;27;20051;-64
2023/10/16 11:54:25;;;;;;;0.40;0.40;;;;;;;10.85;38.27;100589.25;5128546;28;20416;-64
2023/10/16 11:56:53;;;;;;;0.90;0.50;;;;;;;10.61;38.60;100598.06;5128588;28;20135;-63
2023/10/16 11:59:25;;;;;;;19.13;2.35;;;;;;;10.38;38.65;100570.47;5127011;28;20020;-64
2023/10/16 12:01:53;;;;;;;11.10;1.05;;;;;;;10.35;39.12;100586.91;5128216;28;20107;-65
2023/10/16 12:04:19;;;;;;;1.35;1.10;;;;;;;10.32;39.17;100586.91;5128270;28;20069;-65
2023/10/16 12:06:47;;;;;;;2.17;0.63;;;;;;;10.37;39.38;100595.53;5122124;22;20087;-61
2023/10/16 12:09:13;;;;;;;24.60;2.85;;;;;;;10.39;39.52;100592.94;5080593;22;20409;-61
2023/10/16 12:11:44;;;;;;;8.88;1.15;;;;;;;10.35;39.42;100589.50;5066964;28;20021;-61
2023/10/16 12:14:13;;;;;;;5.30;2.40;;;;;;;10.33;39.33;100578.28;5070545;22;20054;-65
2023/10/16 12:16:41;;;;;;;8.88;2.10;;;;;;;10.29;39.60;100582.59;5067176;28;20349;-65
2023/10/16 12:19:06;;;;;;;6.05;3.50;;;;;;;10.46;39.40;100604.16;5049420;28;20028;-65
2023/10/16 12:21:32;;;;;;;1.05;0.98;;;;;;;10.48;39.73;100610.25;5067162;28;20025;-65
2023/10/16 12:23:57;;;;;;;1.08;0.73;;;;;;;10.51;39.90;100607.66;5067237;28;20025;-65
2023/10/16 12:26:24;;;;;;;0.95;0.60;;;;;;;10.49;40.31;100610.25;5067166;28;20025;-65
2023/10/16 12:28:50;;;;;;;0.30;0.30;;;;;;;10.39;40.38;100606.78;5067064;28;20086;-64
2023/10/16 12:31:15;;;;;;;0.50;0.47;;;;;;;10.37;40.65;100618.91;5072390;22;20120;-61
2023/10/16 12:33:40;;;;;;;0.47;0.47;;;;;;;10.30;41.31;100619.81;5066827;28;20044;-61
2023/10/16 12:36:08;;;;;;;0.40;0.40;;;;;;;10.30;41.10;100619.81;5066497;28;20043;-63
2023/10/16 12:38:33;;;;;;;0.40;0.40;;;;;;;10.26;41.33;100623.28;5066877;28;20025;-62
2023/10/16 12:41:04;;;;;;;3.20;1.65;;;;;;;10.21;41.31;100617.25;5066676;28;20032;-63
2023/10/16 12:43:30;;;;;;;0.40;0.40;;;;;;;10.09;41.67;100620.72;5074346;22;20062;-65
2023/10/16 12:45:57;;;;;;;0.40;0.40;;;;;;;10.08;41.90;100616.44;5071504;22;20322;-62
2023/10/16 12:48:25;;;;;;;0.60;0.60;;;;;;;10.13;42.11;100623.31;5066639;28;20069;-62
2023/10/16 12:50:51;;;;;;;0.30;0.30;;;;;;;10.12;42.05;100620.72;5066638;28;20044;-63
2023/10/16 12:53:16;;;;;;;0.90;0.70;;;;;;;10.07;42.57;100615.56;5066970;28;20024;-62
2023/10/16 12:55:48;;;;;;;0.40;0.40;;;;;;;10.07;42.71;100632.84;5066544;28;20492;-62
2023/10/16 12:58:14;;;;;;;;;;;;;;;10.03;43.97;100630.25;5066961;28;20017;-62
2023/10/16 13:00:39;;;;;;;0.40;0.40;;;;;;;10.00;42.87;100634.59;5066102;28;19939;-61
2023/10/16 13:03:14;;;;;;;0.30;0.30;;;;;;;9.89;43.47;100635.47;5066375;28;20043;-62
2023/10/16 13:05:40;;;;;;;0.30;0.30;;;;;;;9.88;43.81;100636.34;5064997;28;20021;-61
2023/10/16 13:08:07;;;;;;;0.30;0.30;;;;;;;9.89;44.01;100643.25;5066468;28;20025;-63
2023/10/16 13:10:34;;;;;;;4.85;0.52;;;;;;;9.89;44.05;100644.97;5048365;28;20397;-62
2023/10/16 13:13:00;;;;;;;0.52;0.45;;;;;;;9.81;44.33;100636.38;5066337;28;20013;-61
2023/10/16 13:15:29;;;;;;;0.60;0.40;;;;;;;9.83;44.11;100643.28;5065904;28;20052;-62
2023/10/16 13:17:56;;;;;;;0.45;0.45;;;;;;;9.81;44.16;100652.78;5065958;28;20025;-62
2023/10/16 13:20:27;;;;;;;1.27;0.50;;;;;;;9.80;44.46;100653.66;5065964;28;20453;-62
2023/10/16 13:22:54;;;;;;;7.22;0.80;;;;;;;9.80;44.32;100656.25;5065920;28;20044;-61
2023/10/16 13:25:25;;;;;;;0.63;0.60;;;;;;;9.82;44.30;100649.34;5048186;28;20440;-63
2023/10/16 13:27:51;;;;;;;0.40;0.40;;;;;;;9.83;44.56;100645.88;5065971;28;20020;-62
2023/10/16 13:30:18;;;;;;;0.40;0.40;;;;;;;9.79;45.04;100646.75;5065699;28;20025;-62